sensor_id;sensor_type;location;lat;lon;timestamp;P1;durP1;ratioP1;P2;durP2;ratioP2
29422;SDS011;16399;51.686;8.684;2022-10-03T00:01:27;11.60;;;2.10;;
29422;SDS011;16399;51.686;8.684;2022-10-03T00:04:44;12.37;;;2.45;;
29422;SDS011;16399;51.686;8.684;2022-10-03T00:11:37;9.50;;;2.00;;
29422;SDS011;16399;51.686;8.684;2022-10-03T00:14:50;11.43;;;3.15;;
29422;SDS011;16399;51.686;8.684;2022-10-03T00:21:29;13.05;;;2.47;;
29422;SDS011;16399;51.686;8.684;2022-10-03T00:24:41;8.10;;;2.25;;
29422;SDS011;16399;51.686;8.684;2022-10-03T00:28:06;13.15;;;2.30;;
29422;SDS011;16399;51.686;8.684;2022-10-03T00:31:13;18.00;;;2.33;;
29422;SDS011;16399;51.686;8.684;2022-10-03T00:37:36;14.43;;;2.10;;
29422;SDS011;16399;51.686;8.684;2022-10-03T00:44:28;10.68;;;1.75;;
29422;SDS011;16399;51.686;8.684;2022-10-03T00:50:56;14.80;;;2.27;;
29422;SDS011;16399;51.686;8.684;2022-10-03T01:00:18;10.65;;;2.15;;
29422;SDS011;16399;51.686;8.684;2022-10-03T01:10:08;13.93;;;2.17;;
29422;SDS011;16399;51.686;8.684;2022-10-03T01:13:14;17.50;;;3.15;;
29422;SDS011;16399;51.686;8.684;2022-10-03T01:23:24;15.60;;;2.52;;
29422;SDS011;16399;51.686;8.684;2022-10-03T01:29:54;13.50;;;2.85;;
29422;SDS011;16399;51.686;8.684;2022-10-03T01:33:17;11.75;;;2.25;;
29422;SDS011;16399;51.686;8.684;2022-10-03T01:36:30;20.45;;;2.70;;
29422;SDS011;16399;51.686;8.684;2022-10-03T01:39:52;11.25;;;2.42;;
29422;SDS011;16399;51.686;8.684;2022-10-03T01:43:05;14.75;;;2.45;;
29422;SDS011;16399;51.686;8.684;2022-10-03T01:46:21;17.35;;;2.67;;
29422;SDS011;16399;51.686;8.684;2022-10-03T01:49:42;17.20;;;2.72;;
29422;SDS011;16399;51.686;8.684;2022-10-03T01:52:57;19.17;;;2.95;;
29422;SDS011;16399;51.686;8.684;2022-10-03T01:56:07;13.28;;;3.22;;
29422;SDS011;16399;51.686;8.684;2022-10-03T01:59:20;11.55;;;2.20;;
29422;SDS011;16399;51.686;8.684;2022-10-03T02:02:34;13.18;;;2.33;;
29422;SDS011;16399;51.686;8.684;2022-10-03T02:09:17;13.45;;;2.87;;
29422;SDS011;16399;51.686;8.684;2022-10-03T02:18:59;13.50;;;2.67;;
29422;SDS011;16399;51.686;8.684;2022-10-03T02:22:15;17.27;;;2.60;;
29422;SDS011;16399;51.686;8.684;2022-10-03T02:31:51;16.82;;;2.87;;
29422;SDS011;16399;51.686;8.684;2022-10-03T02:45:12;20.48;;;2.70;;
29422;SDS011;16399;51.686;8.684;2022-10-03T03:05:05;18.07;;;3.08;;
29422;SDS011;16399;51.686;8.684;2022-10-03T03:08:12;16.57;;;3.00;;
29422;SDS011;16399;51.686;8.684;2022-10-03T03:11:45;14.07;;;3.40;;
29422;SDS011;16399;51.686;8.684;2022-10-03T03:18:28;12.78;;;3.05;;
29422;SDS011;16399;51.686;8.684;2022-10-03T03:21:52;10.35;;;3.45;;
29422;SDS011;16399;51.686;8.684;2022-10-03T03:25:04;10.50;;;3.10;;
29422;SDS011;16399;51.686;8.684;2022-10-03T03:28:31;17.87;;;3.25;;
29422;SDS011;16399;51.686;8.684;2022-10-03T03:35:16;13.88;;;2.85;;
29422;SDS011;16399;51.686;8.684;2022-10-03T03:38:40;17.23;;;3.52;;
29422;SDS011;16399;51.686;8.684;2022-10-03T03:55:01;18.13;;;3.73;;
29422;SDS011;16399;51.686;8.684;2022-10-03T03:58:12;13.43;;;3.62;;
29422;SDS011;16399;51.686;8.684;2022-10-03T04:08:31;16.12;;;3.77;;
29422;SDS011;16399;51.686;8.684;2022-10-03T04:11:42;14.47;;;3.65;;
29422;SDS011;16399;51.686;8.684;2022-10-03T04:14:52;10.88;;;3.75;;
29422;SDS011;16399;51.686;8.684;2022-10-03T04:28:23;24.90;;;4.50;;
29422;SDS011;16399;51.686;8.684;2022-10-03T04:46:09;18.67;;;4.03;;
29422;SDS011;16399;51.686;8.684;2022-10-03T04:59:27;13.35;;;3.85;;
29422;SDS011;16399;51.686;8.684;2022-10-03T05:02:38;18.77;;;4.22;;
29422;SDS011;16399;51.686;8.684;2022-10-03T05:05:42;19.30;;;4.33;;
29422;SDS011;16399;51.686;8.684;2022-10-03T05:08:54;11.33;;;3.77;;
29422;SDS011;16399;51.686;8.684;2022-10-03T05:11:56;15.70;;;3.55;;
29422;SDS011;16399;51.686;8.684;2022-10-03T05:15:20;16.17;;;3.98;;
29422;SDS011;16399;51.686;8.684;2022-10-03T05:18:44;18.07;;;4.08;;
29422;SDS011;16399;51.686;8.684;2022-10-03T05:22:38;18.60;;;4.22;;
29422;SDS011;16399;51.686;8.684;2022-10-03T05:42:34;13.62;;;4.55;;
29422;SDS011;16399;51.686;8.684;2022-10-03T05:49:41;17.17;;;4.20;;
29422;SDS011;16399;51.686;8.684;2022-10-03T06:03:30;18.90;;;5.25;;
29422;SDS011;16399;51.686;8.684;2022-10-03T06:10:20;17.87;;;5.00;;
29422;SDS011;16399;51.686;8.684;2022-10-03T06:13:42;14.25;;;4.58;;
29422;SDS011;16399;51.686;8.684;2022-10-03T06:27:27;19.92;;;5.85;;
29422;SDS011;16399;51.686;8.684;2022-10-03T06:34:14;15.68;;;6.90;;
29422;SDS011;16399;51.686;8.684;2022-10-03T07:18:10;17.25;;;8.00;;
29422;SDS011;16399;51.686;8.684;2022-10-03T07:21:35;18.95;;;5.40;;
29422;SDS011;16399;51.686;8.684;2022-10-03T07:52:32;25.08;;;7.83;;
29422;SDS011;16399;51.686;8.684;2022-10-03T07:55:56;19.95;;;7.78;;
29422;SDS011;16399;51.686;8.684;2022-10-03T08:16:31;20.37;;;8.48;;
29422;SDS011;16399;51.686;8.684;2022-10-03T08:20:00;22.50;;;10.10;;
29422;SDS011;16399;51.686;8.684;2022-10-03T08:23:16;20.43;;;9.58;;
29422;SDS011;16399;51.686;8.684;2022-10-03T08:26:35;24.70;;;8.45;;
29422;SDS011;16399;51.686;8.684;2022-10-03T08:33:30;21.62;;;9.10;;
29422;SDS011;16399;51.686;8.684;2022-10-03T08:57:08;18.02;;;7.67;;
29422;SDS011;16399;51.686;8.684;2022-10-03T09:03:33;21.05;;;8.88;;
29422;SDS011;16399;51.686;8.684;2022-10-03T09:06:48;22.62;;;8.20;;
29422;SDS011;16399;51.686;8.684;2022-10-03T09:10:00;19.40;;;8.03;;
29422;SDS011;16399;51.686;8.684;2022-10-03T09:13:23;22.17;;;8.43;;
29422;SDS011;16399;51.686;8.684;2022-10-03T09:23:17;22.10;;;8.63;;
29422;SDS011;16399;51.686;8.684;2022-10-03T09:29:45;22.37;;;8.95;;
29422;SDS011;16399;51.686;8.684;2022-10-03T09:36:06;24.98;;;8.95;;
29422;SDS011;16399;51.686;8.684;2022-10-03T09:42:43;16.80;;;8.03;;
29422;SDS011;16399;51.686;8.684;2022-10-03T09:46:04;20.02;;;8.60;;
29422;SDS011;16399;51.686;8.684;2022-10-03T09:49:26;17.90;;;7.40;;
29422;SDS011;16399;51.686;8.684;2022-10-03T09:52:42;18.62;;;6.95;;
29422;SDS011;16399;51.686;8.684;2022-10-03T10:02:45;18.90;;;8.33;;
29422;SDS011;16399;51.686;8.684;2022-10-03T10:06:06;19.35;;;7.50;;
29422;SDS011;16399;51.686;8.684;2022-10-03T10:09:36;18.77;;;7.30;;
29422;SDS011;16399;51.686;8.684;2022-10-03T10:26:07;15.75;;;7.28;;
29422;SDS011;16399;51.686;8.684;2022-10-03T10:32:49;16.20;;;7.00;;
29422;SDS011;16399;51.686;8.684;2022-10-03T10:49:41;15.20;;;5.62;;
29422;SDS011;16399;51.686;8.684;2022-10-03T11:09:50;15.72;;;5.87;;
29422;SDS011;16399;51.686;8.684;2022-10-03T11:23:27;9.08;;;2.33;;
29422;SDS011;16399;51.686;8.684;2022-10-03T11:33:34;9.00;;;2.27;;
29422;SDS011;16399;51.686;8.684;2022-10-03T11:40:17;11.12;;;2.30;;
29422;SDS011;16399;51.686;8.684;2022-10-03T11:43:45;11.25;;;2.25;;
29422;SDS011;16399;51.686;8.684;2022-10-03T11:53:36;10.25;;;2.00;;
29422;SDS011;16399;51.686;8.684;2022-10-03T11:57:11;10.58;;;2.17;;
29422;SDS011;16399;51.686;8.684;2022-10-03T12:00:19;9.00;;;1.65;;
29422;SDS011;16399;51.686;8.684;2022-10-03T12:03:24;6.77;;;0.90;;
29422;SDS011;16399;51.686;8.684;2022-10-03T12:06:50;8.60;;;1.40;;
29422;SDS011;16399;51.686;8.684;2022-10-03T12:10:28;10.00;;;2.02;;
29422;SDS011;16399;51.686;8.684;2022-10-03T12:13:28;10.00;;;1.65;;
29422;SDS011;16399;51.686;8.684;2022-10-03T12:30:04;11.43;;;1.62;;
29422;SDS011;16399;51.686;8.684;2022-10-03T12:43:17;12.58;;;3.85;;
29422;SDS011;16399;51.686;8.684;2022-10-03T12:46:34;11.53;;;2.55;;
29422;SDS011;16399;51.686;8.684;2022-10-03T12:56:24;6.33;;;1.40;;
29422;SDS011;16399;51.686;8.684;2022-10-03T12:59:37;6.28;;;1.40;;
29422;SDS011;16399;51.686;8.684;2022-10-03T13:02:42;9.25;;;2.27;;
29422;SDS011;16399;51.686;8.684;2022-10-03T13:12:52;6.80;;;1.80;;
29422;SDS011;16399;51.686;8.684;2022-10-03T13:16:05;8.00;;;1.20;;
29422;SDS011;16399;51.686;8.684;2022-10-03T13:19:14;8.68;;;1.20;;
29422;SDS011;16399;51.686;8.684;2022-10-03T13:22:45;7.05;;;1.30;;
29422;SDS011;16399;51.686;8.684;2022-10-03T13:32:41;7.08;;;1.62;;
29422;SDS011;16399;51.686;8.684;2022-10-03T13:35:49;6.97;;;1.22;;
29422;SDS011;16399;51.686;8.684;2022-10-03T13:39:10;7.37;;;1.40;;
29422;SDS011;16399;51.686;8.684;2022-10-03T13:42:28;9.88;;;2.17;;
29422;SDS011;16399;51.686;8.684;2022-10-03T13:45:46;5.30;;;1.17;;
29422;SDS011;16399;51.686;8.684;2022-10-03T13:49:13;7.80;;;1.98;;
29422;SDS011;16399;51.686;8.684;2022-10-03T13:52:12;6.85;;;1.30;;
29422;SDS011;16399;51.686;8.684;2022-10-03T13:55:59;4.55;;;1.10;;
29422;SDS011;16399;51.686;8.684;2022-10-03T13:59:25;6.95;;;1.12;;
29422;SDS011;16399;51.686;8.684;2022-10-03T14:08:45;8.33;;;1.90;;
29422;SDS011;16399;51.686;8.684;2022-10-03T14:11:59;4.65;;;1.02;;
29422;SDS011;16399;51.686;8.684;2022-10-03T14:15:09;7.55;;;1.30;;
29422;SDS011;16399;51.686;8.684;2022-10-03T14:18:31;6.95;;;1.12;;
29422;SDS011;16399;51.686;8.684;2022-10-03T14:22:08;6.25;;;1.05;;
29422;SDS011;16399;51.686;8.684;2022-10-03T14:25:37;6.22;;;0.90;;
29422;SDS011;16399;51.686;8.684;2022-10-03T14:32:02;18.85;;;1.85;;
29422;SDS011;16399;51.686;8.684;2022-10-03T14:35:24;5.12;;;1.20;;
29422;SDS011;16399;51.686;8.684;2022-10-03T14:45:16;8.85;;;2.40;;
29422;SDS011;16399;51.686;8.684;2022-10-03T14:48:21;11.30;;;2.45;;
29422;SDS011;16399;51.686;8.684;2022-10-03T14:51:33;6.90;;;1.52;;
29422;SDS011;16399;51.686;8.684;2022-10-03T14:54:37;6.62;;;1.47;;
29422;SDS011;16399;51.686;8.684;2022-10-03T15:00:52;6.00;;;1.00;;
29422;SDS011;16399;51.686;8.684;2022-10-03T15:07:10;7.75;;;1.22;;
29422;SDS011;16399;51.686;8.684;2022-10-03T15:10:15;5.17;;;1.10;;
29422;SDS011;16399;51.686;8.684;2022-10-03T15:13:23;9.95;;;1.22;;
29422;SDS011;16399;51.686;8.684;2022-10-03T15:16:29;5.05;;;1.37;;
29422;SDS011;16399;51.686;8.684;2022-10-03T15:19:38;6.72;;;1.20;;
29422;SDS011;16399;51.686;8.684;2022-10-03T15:22:48;3.83;;;0.90;;
29422;SDS011;16399;51.686;8.684;2022-10-03T15:25:49;5.33;;;0.90;;
29422;SDS011;16399;51.686;8.684;2022-10-03T15:31:58;9.50;;;2.00;;
29422;SDS011;16399;51.686;8.684;2022-10-03T15:35:03;9.75;;;2.67;;
29422;SDS011;16399;51.686;8.684;2022-10-03T15:38:16;4.93;;;1.27;;
29422;SDS011;16399;51.686;8.684;2022-10-03T15:41:35;6.40;;;2.00;;
29422;SDS011;16399;51.686;8.684;2022-10-03T15:44:55;4.45;;;1.40;;
29422;SDS011;16399;51.686;8.684;2022-10-03T15:48:00;7.67;;;1.12;;
29422;SDS011;16399;51.686;8.684;2022-10-03T15:51:13;6.15;;;1.07;;
29422;SDS011;16399;51.686;8.684;2022-10-03T15:54:12;4.70;;;1.12;;
29422;SDS011;16399;51.686;8.684;2022-10-03T15:57:22;6.00;;;1.00;;
29422;SDS011;16399;51.686;8.684;2022-10-03T16:00:29;3.95;;;0.82;;
29422;SDS011;16399;51.686;8.684;2022-10-03T16:03:56;3.80;;;0.88;;
29422;SDS011;16399;51.686;8.684;2022-10-03T16:10:09;12.68;;;1.42;;
29422;SDS011;16399;51.686;8.684;2022-10-03T16:13:23;5.78;;;1.20;;
29422;SDS011;16399;51.686;8.684;2022-10-03T16:16:38;5.17;;;1.10;;
29422;SDS011;16399;51.686;8.684;2022-10-03T16:19:53;6.83;;;1.50;;
29422;SDS011;16399;51.686;8.684;2022-10-03T16:22:52;8.35;;;1.20;;
29422;SDS011;16399;51.686;8.684;2022-10-03T16:26:00;6.15;;;1.52;;
29422;SDS011;16399;51.686;8.684;2022-10-03T16:29:11;4.72;;;1.00;;
29422;SDS011;16399;51.686;8.684;2022-10-03T16:32:16;7.50;;;1.15;;
29422;SDS011;16399;51.686;8.684;2022-10-03T16:38:31;5.75;;;1.30;;
29422;SDS011;16399;51.686;8.684;2022-10-03T16:41:40;3.77;;;0.98;;
29422;SDS011;16399;51.686;8.684;2022-10-03T16:47:57;6.05;;;1.47;;
29422;SDS011;16399;51.686;8.684;2022-10-03T16:51:22;7.55;;;2.33;;
29422;SDS011;16399;51.686;8.684;2022-10-03T16:54:26;10.28;;;2.65;;
29422;SDS011;16399;51.686;8.684;2022-10-03T16:57:35;8.20;;;2.83;;
29422;SDS011;16399;51.686;8.684;2022-10-03T17:07:23;8.58;;;2.00;;
29422;SDS011;16399;51.686;8.684;2022-10-03T17:10:34;10.23;;;2.25;;
29422;SDS011;16399;51.686;8.684;2022-10-03T17:13:43;10.35;;;3.75;;
29422;SDS011;16399;51.686;8.684;2022-10-03T17:16:52;12.25;;;3.72;;
29422;SDS011;16399;51.686;8.684;2022-10-03T17:20:11;11.43;;;3.90;;
29422;SDS011;16399;51.686;8.684;2022-10-03T17:23:20;12.13;;;2.70;;
29422;SDS011;16399;51.686;8.684;2022-10-03T17:26:24;7.25;;;2.10;;
29422;SDS011;16399;51.686;8.684;2022-10-03T17:29:43;6.42;;;2.10;;
29422;SDS011;16399;51.686;8.684;2022-10-03T17:32:49;7.50;;;1.72;;
29422;SDS011;16399;51.686;8.684;2022-10-03T17:35:57;7.47;;;1.70;;
29422;SDS011;16399;51.686;8.684;2022-10-03T17:39:09;6.50;;;2.10;;
29422;SDS011;16399;51.686;8.684;2022-10-03T17:42:37;8.60;;;1.95;;
29422;SDS011;16399;51.686;8.684;2022-10-03T17:45:43;5.28;;;1.42;;
29422;SDS011;16399;51.686;8.684;2022-10-03T17:48:50;6.37;;;1.52;;
29422;SDS011;16399;51.686;8.684;2022-10-03T17:51:55;5.97;;;1.65;;
29422;SDS011;16399;51.686;8.684;2022-10-03T17:55:01;5.00;;;1.45;;
29422;SDS011;16399;51.686;8.684;2022-10-03T17:58:05;4.97;;;1.60;;
29422;SDS011;16399;51.686;8.684;2022-10-03T18:01:35;16.97;;;7.22;;
29422;SDS011;16399;51.686;8.684;2022-10-03T18:04:40;24.52;;;10.38;;
29422;SDS011;16399;51.686;8.684;2022-10-03T18:07:45;15.05;;;5.95;;
29422;SDS011;16399;51.686;8.684;2022-10-03T18:10:52;13.68;;;4.30;;
29422;SDS011;16399;51.686;8.684;2022-10-03T18:14:12;8.43;;;3.67;;
29422;SDS011;16399;51.686;8.684;2022-10-03T18:17:23;11.03;;;3.85;;
29422;SDS011;16399;51.686;8.684;2022-10-03T18:24:12;6.75;;;1.92;;
29422;SDS011;16399;51.686;8.684;2022-10-03T18:27:27;15.05;;;3.55;;
29422;SDS011;16399;51.686;8.684;2022-10-03T18:31:29;12.68;;;5.67;;
29422;SDS011;16399;51.686;8.684;2022-10-03T18:33:55;11.90;;;4.22;;
29422;SDS011;16399;51.686;8.684;2022-10-03T18:37:15;8.15;;;2.08;;
29422;SDS011;16399;51.686;8.684;2022-10-03T18:40:22;8.15;;;1.80;;
29422;SDS011;16399;51.686;8.684;2022-10-03T18:43:31;5.10;;;1.57;;
29422;SDS011;16399;51.686;8.684;2022-10-03T18:46:45;7.70;;;1.95;;
29422;SDS011;16399;51.686;8.684;2022-10-03T18:49:57;9.15;;;2.33;;
29422;SDS011;16399;51.686;8.684;2022-10-03T18:56:23;8.15;;;2.22;;
29422;SDS011;16399;51.686;8.684;2022-10-03T18:59:39;7.53;;;2.42;;
29422;SDS011;16399;51.686;8.684;2022-10-03T19:02:41;8.38;;;2.60;;
29422;SDS011;16399;51.686;8.684;2022-10-03T19:06:01;14.18;;;3.10;;
29422;SDS011;16399;51.686;8.684;2022-10-03T19:09:12;9.48;;;2.40;;
29422;SDS011;16399;51.686;8.684;2022-10-03T19:12:22;8.88;;;2.60;;
29422;SDS011;16399;51.686;8.684;2022-10-03T19:15:39;9.33;;;3.05;;
29422;SDS011;16399;51.686;8.684;2022-10-03T19:18:55;11.65;;;3.05;;
29422;SDS011;16399;51.686;8.684;2022-10-03T19:22:05;6.30;;;2.90;;
29422;SDS011;16399;51.686;8.684;2022-10-03T19:25:16;6.83;;;2.25;;
29422;SDS011;16399;51.686;8.684;2022-10-03T19:28:25;7.90;;;3.33;;
29422;SDS011;16399;51.686;8.684;2022-10-03T19:31:39;11.60;;;3.47;;
29422;SDS011;16399;51.686;8.684;2022-10-03T19:34:46;13.48;;;6.20;;
29422;SDS011;16399;51.686;8.684;2022-10-03T19:37:51;22.42;;;8.75;;
29422;SDS011;16399;51.686;8.684;2022-10-03T19:40:59;15.28;;;7.55;;
29422;SDS011;16399;51.686;8.684;2022-10-03T19:44:07;11.97;;;4.00;;
29422;SDS011;16399;51.686;8.684;2022-10-03T19:50:23;11.28;;;3.37;;
29422;SDS011;16399;51.686;8.684;2022-10-03T19:53:31;8.63;;;4.13;;
29422;SDS011;16399;51.686;8.684;2022-10-03T19:56:34;12.50;;;3.17;;
29422;SDS011;16399;51.686;8.684;2022-10-03T20:03:03;11.05;;;3.08;;
29422;SDS011;16399;51.686;8.684;2022-10-03T20:06:21;7.83;;;2.55;;
29422;SDS011;16399;51.686;8.684;2022-10-03T20:09:23;14.50;;;2.75;;
29422;SDS011;16399;51.686;8.684;2022-10-03T20:12:30;9.00;;;2.62;;
29422;SDS011;16399;51.686;8.684;2022-10-03T20:15:47;9.10;;;3.02;;
29422;SDS011;16399;51.686;8.684;2022-10-03T20:18:47;27.00;;;3.83;;
29422;SDS011;16399;51.686;8.684;2022-10-03T20:21:53;11.28;;;2.77;;
29422;SDS011;16399;51.686;8.684;2022-10-03T20:24:57;7.62;;;2.80;;
29422;SDS011;16399;51.686;8.684;2022-10-03T20:28:01;9.93;;;2.75;;
29422;SDS011;16399;51.686;8.684;2022-10-03T20:31:06;11.35;;;2.80;;
29422;SDS011;16399;51.686;8.684;2022-10-03T20:34:13;9.78;;;3.35;;
29422;SDS011;16399;51.686;8.684;2022-10-03T20:40:39;10.53;;;2.90;;
29422;SDS011;16399;51.686;8.684;2022-10-03T20:43:54;7.85;;;2.85;;
29422;SDS011;16399;51.686;8.684;2022-10-03T20:47:16;9.75;;;2.83;;
29422;SDS011;16399;51.686;8.684;2022-10-03T20:50:23;7.50;;;2.70;;
29422;SDS011;16399;51.686;8.684;2022-10-03T20:53:29;12.60;;;2.77;;
29422;SDS011;16399;51.686;8.684;2022-10-03T20:56:35;5.75;;;2.50;;
29422;SDS011;16399;51.686;8.684;2022-10-03T21:06:13;11.45;;;2.90;;
29422;SDS011;16399;51.686;8.684;2022-10-03T21:09:31;10.58;;;3.05;;
29422;SDS011;16399;51.686;8.684;2022-10-03T21:12:30;5.35;;;2.35;;
29422;SDS011;16399;51.686;8.684;2022-10-03T21:15:46;9.20;;;3.30;;
29422;SDS011;16399;51.686;8.684;2022-10-03T21:19:00;14.85;;;3.50;;
29422;SDS011;16399;51.686;8.684;2022-10-03T21:22:04;14.30;;;3.35;;
29422;SDS011;16399;51.686;8.684;2022-10-03T21:25:19;7.60;;;2.55;;
29422;SDS011;16399;51.686;8.684;2022-10-03T21:28:24;10.55;;;2.62;;
29422;SDS011;16399;51.686;8.684;2022-10-03T21:31:33;8.43;;;2.83;;
29422;SDS011;16399;51.686;8.684;2022-10-03T21:38:14;11.03;;;3.12;;
29422;SDS011;16399;51.686;8.684;2022-10-03T21:42:22;11.15;;;2.62;;
29422;SDS011;16399;51.686;8.684;2022-10-03T21:44:55;8.83;;;2.90;;
29422;SDS011;16399;51.686;8.684;2022-10-03T21:48:10;7.35;;;2.30;;
29422;SDS011;16399;51.686;8.684;2022-10-03T21:51:26;8.55;;;3.15;;
29422;SDS011;16399;51.686;8.684;2022-10-03T21:54:42;9.58;;;3.02;;
29422;SDS011;16399;51.686;8.684;2022-10-03T22:01:11;6.62;;;3.10;;
29422;SDS011;16399;51.686;8.684;2022-10-03T22:07:36;6.17;;;2.62;;
29422;SDS011;16399;51.686;8.684;2022-10-03T22:10:42;10.08;;;3.12;;
29422;SDS011;16399;51.686;8.684;2022-10-03T22:13:53;11.20;;;2.92;;
29422;SDS011;16399;51.686;8.684;2022-10-03T22:16:53;8.23;;;2.55;;
29422;SDS011;16399;51.686;8.684;2022-10-03T22:20:07;8.15;;;2.95;;
29422;SDS011;16399;51.686;8.684;2022-10-03T22:33:17;8.83;;;3.02;;
29422;SDS011;16399;51.686;8.684;2022-10-03T22:36:20;8.23;;;3.10;;
29422;SDS011;16399;51.686;8.684;2022-10-03T22:39:23;8.38;;;3.20;;
29422;SDS011;16399;51.686;8.684;2022-10-03T22:42:26;9.33;;;2.90;;
29422;SDS011;16399;51.686;8.684;2022-10-03T22:45:32;12.00;;;2.85;;
29422;SDS011;16399;51.686;8.684;2022-10-03T22:48:41;7.35;;;2.80;;
29422;SDS011;16399;51.686;8.684;2022-10-03T22:51:46;9.65;;;3.92;;
29422;SDS011;16399;51.686;8.684;2022-10-03T22:54:50;7.92;;;3.60;;
29422;SDS011;16399;51.686;8.684;2022-10-03T22:57:54;9.83;;;3.35;;
29422;SDS011;16399;51.686;8.684;2022-10-03T23:00:59;8.55;;;2.85;;
29422;SDS011;16399;51.686;8.684;2022-10-03T23:04:03;7.65;;;3.17;;
29422;SDS011;16399;51.686;8.684;2022-10-03T23:11:01;12.35;;;3.77;;
29422;SDS011;16399;51.686;8.684;2022-10-03T23:14:16;14.10;;;3.72;;
29422;SDS011;16399;51.686;8.684;2022-10-03T23:20:58;20.68;;;5.17;;
29422;SDS011;16399;51.686;8.684;2022-10-03T23:24:04;15.35;;;4.47;;
29422;SDS011;16399;51.686;8.684;2022-10-03T23:27:25;10.25;;;3.92;;
29422;SDS011;16399;51.686;8.684;2022-10-03T23:30:46;16.32;;;4.20;;
29422;SDS011;16399;51.686;8.684;2022-10-03T23:33:50;10.75;;;3.45;;
29422;SDS011;16399;51.686;8.684;2022-10-03T23:37:01;11.00;;;3.33;;
29422;SDS011;16399;51.686;8.684;2022-10-03T23:46:42;6.08;;;2.45;;
29422;SDS011;16399;51.686;8.684;2022-10-03T23:49:45;7.15;;;2.80;;
29422;SDS011;16399;51.686;8.684;2022-10-03T23:52:53;9.08;;;2.92;;
29422;SDS011;16399;51.686;8.684;2022-10-03T23:55:57;7.50;;;2.90;;
